createdAt,value
2022-12-14T00:03:07.372Z,7.57
2022-12-14T00:08:36.748Z,8.10
2022-12-14T00:14:04.050Z,7.60
2022-12-14T00:19:26.607Z,9.00
2022-12-14T00:24:49.141Z,6.87
2022-12-14T00:30:16.649Z,9.20
2022-12-14T00:35:38.991Z,8.33
2022-12-14T00:41:02.265Z,9.13
2022-12-14T00:46:24.932Z,8.40
2022-12-14T00:51:47.305Z,8.03
2022-12-14T00:57:10.415Z,7.10
2022-12-14T01:02:32.565Z,7.00
2022-12-14T01:07:57.805Z,7.80
2022-12-14T01:13:20.085Z,7.40
2022-12-14T01:18:43.389Z,8.30
2022-12-14T01:24:06.360Z,8.57
2022-12-14T01:29:28.777Z,8.27
2022-12-14T01:34:51.880Z,7.60
2022-12-14T01:40:14.122Z,8.67
2022-12-14T01:45:36.366Z,7.37
2022-12-14T01:50:58.663Z,8.30
2022-12-14T01:56:21.146Z,7.90
2022-12-14T02:01:44.032Z,6.73
2022-12-14T02:07:13.256Z,7.37
2022-12-14T02:12:41.197Z,8.00
2022-12-14T02:18:09.113Z,7.80
2022-12-14T02:23:40.037Z,7.80
2022-12-14T02:29:34.456Z,7.63
2022-12-14T02:35:18.010Z,7.07
2022-12-14T02:41:03.499Z,7.67
2022-12-14T02:47:03.126Z,8.63
2022-12-14T02:53:03.283Z,8.13
2022-12-14T02:58:40.836Z,8.63
2022-12-14T03:04:03.945Z,7.70
2022-12-14T03:09:29.975Z,9.20
2022-12-14T03:14:54.746Z,8.53
2022-12-14T03:20:24.177Z,7.03
2022-12-14T03:26:02.370Z,7.80
2022-12-14T03:31:35.199Z,8.00
2022-12-14T03:37:08.379Z,9.00
2022-12-14T03:42:35.735Z,8.60
2022-12-14T03:48:22.870Z,7.20
2022-12-14T03:54:00.482Z,8.33
2022-12-14T03:59:43.635Z,6.77
2022-12-14T04:05:32.057Z,7.90
2022-12-14T04:11:17.319Z,8.57
2022-12-14T04:17:02.321Z,7.27
2022-12-14T04:22:30.085Z,8.03
2022-12-14T04:28:06.078Z,8.00
2022-12-14T04:33:47.807Z,7.00
2022-12-14T04:39:17.068Z,6.37
2022-12-14T04:44:44.653Z,6.90
2022-12-14T04:50:18.937Z,5.37
2022-12-14T04:55:53.465Z,7.43
2022-12-14T05:01:40.452Z,7.70
2022-12-14T05:07:18.206Z,8.53
2022-12-14T05:12:53.194Z,7.87
2022-12-14T05:18:15.800Z,6.90
2022-12-14T05:23:38.205Z,7.87
2022-12-14T05:29:00.454Z,6.53
2022-12-14T05:34:23.719Z,7.67
2022-12-14T05:39:46.097Z,7.73
2022-12-14T05:45:11.318Z,7.50
2022-12-14T05:50:33.753Z,7.57
2022-12-14T05:55:56.063Z,7.23
2022-12-14T06:01:19.833Z,7.13
2022-12-14T06:06:42.850Z,8.10
2022-12-14T06:12:05.287Z,8.90
2022-12-14T06:17:28.986Z,7.07
2022-12-14T06:22:51.402Z,8.07
2022-12-14T06:28:13.883Z,6.93
2022-12-14T06:33:36.306Z,7.13
2022-12-14T06:39:02.943Z,7.87
2022-12-14T06:44:25.109Z,9.33
2022-12-14T06:49:47.385Z,9.30
2022-12-14T06:55:11.317Z,8.27
2022-12-14T07:00:33.736Z,8.53
2022-12-14T07:05:58.184Z,8.60
2022-12-14T07:11:21.128Z,7.93
2022-12-14T07:16:47.733Z,7.53
2022-12-14T07:22:10.489Z,8.43
2022-12-14T07:27:32.976Z,6.83
2022-12-14T07:32:55.207Z,7.63
2022-12-14T07:38:18.782Z,7.17
2022-12-14T07:43:43.047Z,7.40
2022-12-14T07:49:06.200Z,8.50
2022-12-14T07:54:28.979Z,7.33
2022-12-14T07:59:57.126Z,7.60
2022-12-14T08:05:19.872Z,8.10
2022-12-14T08:10:42.311Z,8.43
2022-12-14T08:16:10.376Z,7.23
2022-12-14T08:21:33.029Z,7.17
2022-12-14T08:26:55.348Z,8.33
2022-12-14T08:32:19.174Z,9.43
2022-12-14T08:37:47.225Z,7.40
2022-12-14T08:43:10.285Z,7.73
2022-12-14T08:48:33.307Z,8.77
2022-12-14T08:53:57.083Z,8.97
2022-12-14T08:59:36.993Z,9.13
2022-12-14T09:05:02.930Z,7.23
2022-12-14T09:10:25.516Z,8.50
2022-12-14T09:16:18.777Z,7.53
2022-12-14T09:21:41.408Z,7.90
2022-12-14T09:27:03.974Z,9.70
2022-12-14T09:32:28.260Z,7.90
2022-12-14T09:37:50.424Z,7.27
2022-12-14T09:43:42.287Z,8.00
2022-12-14T09:49:04.856Z,8.47
2022-12-14T09:54:31.021Z,7.97
2022-12-14T09:59:56.828Z,8.13
2022-12-14T10:05:33.054Z,7.53
2022-12-14T10:11:23.114Z,9.10
2022-12-14T10:17:21.154Z,9.40
2022-12-14T10:22:47.738Z,7.30
2022-12-14T10:28:30.476Z,9.00
2022-12-14T10:33:58.154Z,9.00
2022-12-14T10:39:32.451Z,8.37
2022-12-14T10:45:43.321Z,8.27
2022-12-14T10:51:11.244Z,7.53
2022-12-14T10:56:35.999Z,9.07
2022-12-14T11:02:10.432Z,8.07
2022-12-14T11:07:33.244Z,9.60
2022-12-14T11:13:13.730Z,8.80
2022-12-14T11:18:35.952Z,9.70
2022-12-14T11:23:58.468Z,10.23
2022-12-14T11:29:38.194Z,9.77
2022-12-14T11:35:00.540Z,10.63
2022-12-14T11:40:25.454Z,9.83
2022-12-14T11:45:51.652Z,8.93
2022-12-14T11:51:14.253Z,9.87
2022-12-14T11:56:36.858Z,9.83
2022-12-14T12:02:20.654Z,9.77
2022-12-14T12:07:52.266Z,10.90
2022-12-14T12:13:31.806Z,11.23
2022-12-14T12:19:14.869Z,9.47
2022-12-14T12:25:24.198Z,11.00
2022-12-14T12:30:42.346Z,11.10
2022-12-14T12:36:05.959Z,9.33
2022-12-14T12:41:32.868Z,10.50
2022-12-14T12:47:38.464Z,9.93
2022-12-14T12:53:04.335Z,9.57
2022-12-14T12:58:33.361Z,9.60
2022-12-14T13:04:02.479Z,10.07
2022-12-14T13:09:44.488Z,9.77
2022-12-14T13:15:20.854Z,10.20
2022-12-14T13:20:43.397Z,10.40
2022-12-14T13:26:56.726Z,9.00
2022-12-14T13:32:18.465Z,10.00
2022-12-14T13:37:59.206Z,10.63
2022-12-14T13:43:51.484Z,9.93
2022-12-14T13:49:22.410Z,11.10
2022-12-14T13:54:47.349Z,11.67
2022-12-14T14:00:45.549Z,10.67
2022-12-14T14:06:35.797Z,15.07
2022-12-14T14:11:59.771Z,12.17
2022-12-14T14:17:36.617Z,11.77
2022-12-14T14:23:14.320Z,11.50
2022-12-14T14:28:38.056Z,11.00
2022-12-14T14:34:00.946Z,11.70
2022-12-14T14:40:07.229Z,12.70
2022-12-14T14:45:31.302Z,11.77
2022-12-14T14:51:26.662Z,11.60
2022-12-14T14:56:50.537Z,12.53
2022-12-14T15:02:29.684Z,14.37
2022-12-14T15:07:55.208Z,13.00
2022-12-14T15:13:25.133Z,11.10
2022-12-14T15:18:47.740Z,12.83
2022-12-14T15:24:13.939Z,11.50
2022-12-14T15:29:36.462Z,11.60
2022-12-14T15:35:02.445Z,12.13
2022-12-14T15:40:30.549Z,12.90
2022-12-14T15:45:56.460Z,11.27
2022-12-14T15:51:18.849Z,12.70
2022-12-14T15:56:50.090Z,13.33
2022-12-14T16:02:24.472Z,13.67
2022-12-14T16:07:54.324Z,13.77
2022-12-14T16:13:22.993Z,14.17
2022-12-14T16:18:51.101Z,18.60
2022-12-14T16:24:25.359Z,16.67
2022-12-14T16:30:19.277Z,14.90
2022-12-14T16:35:41.714Z,18.03
2022-12-14T16:41:05.238Z,31.67
2022-12-14T16:46:27.738Z,26.43
2022-12-14T16:52:07.379Z,22.80
2022-12-14T16:57:30.365Z,19.13
2022-12-14T17:02:59.928Z,18.13
2022-12-14T17:08:23.648Z,16.20
2022-12-14T17:13:46.142Z,18.83
2022-12-14T17:19:30.154Z,20.87
2022-12-14T17:24:54.900Z,21.43
2022-12-14T17:30:20.165Z,19.87
2022-12-14T17:35:42.716Z,22.47
2022-12-14T17:41:06.364Z,17.93
2022-12-14T17:46:29.557Z,15.67
2022-12-14T17:51:52.110Z,13.93
2022-12-14T17:57:23.449Z,16.70
2022-12-14T18:02:46.026Z,14.03
2022-12-14T18:08:09.971Z,16.90
2022-12-14T18:13:34.296Z,15.77
2022-12-14T18:18:58.170Z,15.27
2022-12-14T18:24:25.688Z,14.40
2022-12-14T18:29:48.233Z,15.90
2022-12-14T18:35:21.650Z,18.77
2022-12-14T18:40:49.414Z,15.87
2022-12-14T18:46:12.483Z,18.10
2022-12-14T18:51:35.064Z,18.97
2022-12-14T18:56:57.199Z,23.80
2022-12-14T19:02:19.928Z,20.43
2022-12-14T19:07:44.128Z,19.10
2022-12-14T19:13:07.585Z,21.23
2022-12-14T19:18:30.889Z,19.77
2022-12-14T19:23:53.390Z,16.83
2022-12-14T19:29:16.104Z,17.03
2022-12-14T19:34:38.536Z,18.87
2022-12-14T19:40:02.513Z,16.50
2022-12-14T19:45:25.026Z,18.50
2022-12-14T19:50:49.829Z,18.57
2022-12-14T19:56:15.934Z,17.93
2022-12-14T20:01:40.828Z,19.20
2022-12-14T20:07:08.148Z,16.23
2022-12-14T20:12:34.299Z,15.37
2022-12-14T20:17:57.125Z,17.63
2022-12-14T20:23:21.645Z,16.07
2022-12-14T20:28:47.689Z,17.07
2022-12-14T20:34:11.382Z,19.30
2022-12-14T20:39:33.653Z,17.67
2022-12-14T20:44:56.165Z,15.57
2022-12-14T20:50:18.524Z,18.57
2022-12-14T20:55:40.924Z,17.40
2022-12-14T21:01:13.395Z,16.10
2022-12-14T21:06:41.275Z,18.47
2022-12-14T21:12:22.657Z,15.57
2022-12-14T21:17:44.961Z,14.67
2022-12-14T21:23:07.301Z,18.23
2022-12-14T21:28:32.298Z,17.70
2022-12-14T21:33:55.466Z,19.80
2022-12-14T21:39:19.288Z,19.10
2022-12-14T21:44:45.218Z,22.00
2022-12-14T21:50:09.673Z,19.77
2022-12-14T21:55:32.246Z,20.70
2022-12-14T22:00:54.843Z,21.67
2022-12-14T22:06:17.141Z,22.73
2022-12-14T22:11:39.581Z,20.83
2022-12-14T22:17:03.261Z,16.97
2022-12-14T22:22:25.705Z,17.77
2022-12-14T22:27:49.745Z,19.63
2022-12-14T22:33:12.373Z,21.40
2022-12-14T22:38:34.547Z,16.73
2022-12-14T22:43:58.821Z,15.70
2022-12-14T22:49:21.505Z,13.97
2022-12-14T22:54:44.117Z,16.83
2022-12-14T23:00:19.016Z,15.67
2022-12-14T23:05:41.826Z,19.40
2022-12-14T23:11:22.826Z,15.40
2022-12-14T23:17:03.970Z,17.73
2022-12-14T23:22:45.582Z,15.43
2022-12-14T23:28:31.298Z,15.20
2022-12-14T23:34:12.797Z,15.93
2022-12-14T23:39:54.455Z,15.70
2022-12-14T23:45:35.232Z,13.10
2022-12-14T23:51:15.818Z,14.07
2022-12-14T23:56:56.755Z,15.50
